createdAt,value
2018-12-19T00:02:04.474Z,1.40
2018-12-19T00:04:32.522Z,1.50
2018-12-19T00:07:00.683Z,1.60
2018-12-19T00:09:28.859Z,1.50
2018-12-19T00:11:56.943Z,1.60
2018-12-19T00:14:25.146Z,1.60
2018-12-19T00:16:53.174Z,1.60
2018-12-19T00:19:21.259Z,1.70
2018-12-19T00:21:49.334Z,1.70
2018-12-19T00:24:17.410Z,1.60
2018-12-19T00:26:45.595Z,1.50
2018-12-19T00:29:13.712Z,1.50
2018-12-19T00:31:41.818Z,1.50
2018-12-19T00:34:09.891Z,1.60
2018-12-19T00:36:38.091Z,1.60
2018-12-19T00:39:09.781Z,1.70
2018-12-19T00:41:38.297Z,1.80
2018-12-19T00:44:06.363Z,1.90
2018-12-19T00:46:34.474Z,1.90
2018-12-19T00:49:02.614Z,2.00
2018-12-19T00:51:30.715Z,1.90
2018-12-19T00:53:58.942Z,2.00
2018-12-19T00:56:27.314Z,2.00
2018-12-19T00:58:55.418Z,2.00
2018-12-19T01:01:23.462Z,2.00
2018-12-19T01:03:52.108Z,2.00
2018-12-19T01:06:20.770Z,2.10
2018-12-19T01:08:48.851Z,2.00
2018-12-19T01:11:16.923Z,1.90
2018-12-19T01:13:45.282Z,1.60
2018-12-19T01:16:13.479Z,1.60
2018-12-19T01:18:41.963Z,1.60
2018-12-19T01:21:10.042Z,1.70
2018-12-19T01:23:38.095Z,1.70
2018-12-19T01:26:06.339Z,1.90
2018-12-19T01:28:34.398Z,1.90
2018-12-19T01:31:02.491Z,2.00
2018-12-19T01:33:30.608Z,2.10
2018-12-19T01:35:59.075Z,2.10
2018-12-19T01:38:27.146Z,2.10
2018-12-19T01:40:55.222Z,2.20
2018-12-19T01:43:23.271Z,2.30
2018-12-19T01:45:51.567Z,2.30
2018-12-19T01:48:19.623Z,2.40
2018-12-19T01:50:47.684Z,2.40
2018-12-19T01:53:15.779Z,2.50
2018-12-19T01:55:44.050Z,2.50
2018-12-19T01:58:12.636Z,2.60
2018-12-19T02:00:40.706Z,2.60
2018-12-19T02:03:08.742Z,2.50
2018-12-19T02:05:36.815Z,2.40
2018-12-19T02:08:04.899Z,2.30
2018-12-19T02:10:33.087Z,2.20
2018-12-19T02:13:01.258Z,2.30
2018-12-19T02:15:29.339Z,2.40
2018-12-19T02:17:57.411Z,2.40
2018-12-19T02:20:25.478Z,2.60
2018-12-19T02:22:53.554Z,2.70
2018-12-19T02:25:21.598Z,2.80
2018-12-19T02:27:49.698Z,2.90
2018-12-19T02:30:17.771Z,3.00
2018-12-19T02:32:45.847Z,3.00
2018-12-19T02:35:14.123Z,2.80
2018-12-19T02:37:42.159Z,2.80
2018-12-19T02:40:10.251Z,2.90
2018-12-19T02:42:38.323Z,3.60
2018-12-19T02:45:06.747Z,4.00
2018-12-19T02:47:35.695Z,4.30
2018-12-19T02:50:05.799Z,4.50
2018-12-19T02:52:33.879Z,4.80
2018-12-19T02:55:01.948Z,4.90
2018-12-19T02:57:30.023Z,5.10
2018-12-19T02:59:58.098Z,5.30
2018-12-19T03:02:26.165Z,5.40
2018-12-19T03:04:54.385Z,5.50
2018-12-19T03:07:22.431Z,5.50
2018-12-19T03:09:50.480Z,5.50
2018-12-19T03:12:19.066Z,5.50
2018-12-19T03:14:47.138Z,5.50
2018-12-19T03:17:15.166Z,5.60
2018-12-19T03:19:43.279Z,5.60
2018-12-19T03:22:11.410Z,5.70
2018-12-19T03:24:39.486Z,5.80
2018-12-19T03:27:07.555Z,5.70
2018-12-19T03:29:35.639Z,5.80
2018-12-19T03:32:03.736Z,5.60
2018-12-19T03:34:31.998Z,5.50
2018-12-19T03:37:00.060Z,5.40
2018-12-19T03:39:28.132Z,5.40
2018-12-19T03:41:56.429Z,5.30
2018-12-19T03:44:24.467Z,5.30
2018-12-19T03:46:52.570Z,5.50
2018-12-19T03:49:20.847Z,5.60
2018-12-19T03:51:49.284Z,5.70
2018-12-19T03:54:17.445Z,5.70
2018-12-19T03:56:46.107Z,5.70
2018-12-19T03:59:14.259Z,5.70
2018-12-19T04:01:42.331Z,5.70
2018-12-19T04:04:10.586Z,5.70
2018-12-19T04:06:38.631Z,5.70
2018-12-19T04:09:06.962Z,5.70
2018-12-19T04:11:35.231Z,5.60
2018-12-19T04:14:03.307Z,5.50
2018-12-19T04:16:31.354Z,5.50
2018-12-19T04:18:59.654Z,5.60
2018-12-19T04:21:27.707Z,5.50
2018-12-19T04:23:55.897Z,5.40
2018-12-19T04:26:24.076Z,5.40
2018-12-19T04:28:52.142Z,5.30
2018-12-19T04:31:20.222Z,5.20
2018-12-19T04:33:48.396Z,5.00
2018-12-19T04:36:16.648Z,5.00
2018-12-19T04:38:45.104Z,4.90
2018-12-19T04:41:13.318Z,4.80
2018-12-19T04:43:41.365Z,4.80
2018-12-19T04:46:09.536Z,4.90
2018-12-19T04:48:37.639Z,4.80
2018-12-19T04:51:05.684Z,4.80
2018-12-19T04:53:33.831Z,4.80
2018-12-19T04:56:02.007Z,4.90
2018-12-19T04:58:30.031Z,4.90
2018-12-19T05:00:58.222Z,5.00
2018-12-19T05:03:26.372Z,5.10
2018-12-19T05:05:54.610Z,5.20
2018-12-19T05:08:22.922Z,5.20
2018-12-19T05:10:51.006Z,5.30
2018-12-19T05:13:19.160Z,5.40
2018-12-19T05:15:47.338Z,5.40
2018-12-19T05:18:15.511Z,5.50
2018-12-19T05:20:43.588Z,5.50
2018-12-19T05:23:11.659Z,5.50
2018-12-19T05:25:39.751Z,5.50
2018-12-19T05:28:07.906Z,5.50
2018-12-19T05:30:35.975Z,5.60
2018-12-19T05:33:04.118Z,5.50
2018-12-19T05:35:32.223Z,5.60
2018-12-19T05:38:00.266Z,5.60
2018-12-19T05:40:28.467Z,5.50
2018-12-19T05:42:56.558Z,5.50
2018-12-19T05:45:24.619Z,5.40
2018-12-19T05:47:52.735Z,5.40
2018-12-19T05:50:21.726Z,5.40
2018-12-19T05:52:49.824Z,5.30
2018-12-19T05:55:17.862Z,5.30
2018-12-19T05:57:46.003Z,5.30
2018-12-19T06:00:14.344Z,5.30
2018-12-19T06:02:42.495Z,5.30
2018-12-19T06:05:10.599Z,5.30
2018-12-19T06:07:38.754Z,5.30
2018-12-19T06:10:07.171Z,5.30
2018-12-19T06:12:35.230Z,5.30
2018-12-19T06:15:04.226Z,5.40
2018-12-19T06:17:32.272Z,5.40
2018-12-19T06:20:00.811Z,5.40
2018-12-19T06:22:28.961Z,5.40
2018-12-19T06:24:57.003Z,5.50
2018-12-19T06:27:25.529Z,5.50
2018-12-19T06:29:54.196Z,5.50
2018-12-19T06:32:22.263Z,5.50
2018-12-19T06:34:50.334Z,5.50
2018-12-19T06:37:18.406Z,5.50
2018-12-19T06:39:46.524Z,5.50
2018-12-19T06:42:14.560Z,5.50
2018-12-19T06:44:42.828Z,5.50
2018-12-19T06:47:10.901Z,5.40
2018-12-19T06:49:39.039Z,5.40
2018-12-19T06:52:07.125Z,5.40
2018-12-19T06:54:35.191Z,5.40
2018-12-19T06:57:03.252Z,5.40
2018-12-19T06:59:31.303Z,5.50
2018-12-19T07:01:59.430Z,5.50
2018-12-19T07:04:27.920Z,5.50
2018-12-19T07:06:56.553Z,5.50
2018-12-19T07:09:24.707Z,5.50
2018-12-19T07:11:52.754Z,5.50
2018-12-19T07:14:20.911Z,5.50
2018-12-19T07:16:48.984Z,5.50
2018-12-19T07:19:17.072Z,5.50
2018-12-19T07:21:45.107Z,5.50
2018-12-19T07:24:13.279Z,5.50
2018-12-19T07:26:41.326Z,5.50
2018-12-19T07:29:09.527Z,5.50
2018-12-19T07:31:37.606Z,5.50
2018-12-19T07:34:05.667Z,5.60
2018-12-19T07:36:33.743Z,5.60
2018-12-19T07:39:01.798Z,5.60
2018-12-19T07:41:29.883Z,5.70
2018-12-19T07:43:58.022Z,5.70
2018-12-19T07:46:26.118Z,5.70
2018-12-19T07:48:54.219Z,5.70
2018-12-19T07:51:22.303Z,5.70
2018-12-19T07:53:50.378Z,5.70
2018-12-19T07:56:22.988Z,5.70
2018-12-19T07:58:51.131Z,5.80
2018-12-19T08:01:19.291Z,5.80
2018-12-19T08:03:47.672Z,5.80
2018-12-19T08:06:15.756Z,5.80
2018-12-19T08:08:43.919Z,5.80
2018-12-19T08:11:11.992Z,5.90
2018-12-19T08:13:40.055Z,5.90
2018-12-19T08:16:08.173Z,5.90
2018-12-19T08:18:36.191Z,5.90
2018-12-19T08:21:04.274Z,5.90
2018-12-19T08:23:32.458Z,5.90
2018-12-19T08:26:00.702Z,5.90
2018-12-19T08:28:28.926Z,6.00
2018-12-19T08:30:57.013Z,5.90
2018-12-19T08:33:25.069Z,6.00
2018-12-19T08:35:53.152Z,6.00
2018-12-19T08:38:21.470Z,6.00
2018-12-19T08:40:49.966Z,6.00
2018-12-19T08:43:18.038Z,6.00
2018-12-19T08:45:46.871Z,6.10
2018-12-19T08:48:14.967Z,6.10
2018-12-19T08:50:43.218Z,6.10
2018-12-19T08:53:11.367Z,6.10
2018-12-19T08:55:39.519Z,6.20
2018-12-19T08:58:07.667Z,6.20
2018-12-19T09:00:37.599Z,6.20
2018-12-19T09:03:05.786Z,6.20
2018-12-19T09:05:39.999Z,6.30
2018-12-19T09:08:08.068Z,6.30
2018-12-19T09:10:36.902Z,6.30
2018-12-19T09:13:05.002Z,6.30
2018-12-19T09:15:34.990Z,6.30
2018-12-19T09:18:03.043Z,6.40
2018-12-19T09:20:31.090Z,6.40
2018-12-19T09:22:59.276Z,6.40
2018-12-19T09:25:27.380Z,6.40
2018-12-19T09:27:55.487Z,6.50
2018-12-19T09:30:23.580Z,6.50
2018-12-19T09:32:52.641Z,6.50
2018-12-19T09:35:20.963Z,6.50
2018-12-19T09:37:48.999Z,6.60
2018-12-19T09:40:18.118Z,6.60
2018-12-19T09:42:46.275Z,6.60
2018-12-19T09:45:14.564Z,6.60
2018-12-19T09:47:43.211Z,6.70
2018-12-19T09:50:11.295Z,6.70
2018-12-19T09:52:39.364Z,6.70
2018-12-19T09:55:07.559Z,6.70
2018-12-19T09:57:36.631Z,6.70
2018-12-19T10:00:10.278Z,6.80
2018-12-19T10:02:39.782Z,6.80
2018-12-19T10:05:08.136Z,6.80
2018-12-19T10:07:36.220Z,6.80
2018-12-19T10:10:04.922Z,6.80
2018-12-19T10:12:33.126Z,6.80
2018-12-19T10:15:01.212Z,6.80
2018-12-19T10:17:29.391Z,6.90
2018-12-19T10:19:57.567Z,6.90
2018-12-19T10:22:27.619Z,7.00
2018-12-19T10:24:57.764Z,7.00
2018-12-19T10:27:25.830Z,7.00
2018-12-19T10:29:53.887Z,7.10
2018-12-19T10:32:21.972Z,7.20
2018-12-19T10:34:50.127Z,7.40
2018-12-19T10:37:18.653Z,7.40
2018-12-19T10:39:47.300Z,7.40
2018-12-19T10:42:15.410Z,7.40
2018-12-19T10:44:43.463Z,7.40
2018-12-19T10:47:11.563Z,7.30
2018-12-19T10:49:39.639Z,7.30
2018-12-19T10:52:07.756Z,7.30
2018-12-19T10:54:35.994Z,7.30
2018-12-19T10:57:04.183Z,7.30
2018-12-19T10:59:32.459Z,7.30
2018-12-19T11:02:00.596Z,7.30
2018-12-19T11:04:28.664Z,7.30
2018-12-19T11:06:56.789Z,7.40
2018-12-19T11:09:24.970Z,7.40
2018-12-19T11:11:53.064Z,7.50
2018-12-19T11:14:21.215Z,7.60
2018-12-19T11:16:49.403Z,7.80
2018-12-19T11:19:17.506Z,8.00
2018-12-19T11:21:45.819Z,8.10
2018-12-19T11:24:13.991Z,8.30
2018-12-19T11:26:42.367Z,8.50
2018-12-19T11:29:10.452Z,8.50
2018-12-19T11:31:38.638Z,8.60
2018-12-19T11:34:06.710Z,8.60
2018-12-19T11:36:34.779Z,8.50
2018-12-19T11:39:03.363Z,8.60
2018-12-19T11:41:31.439Z,8.60
2018-12-19T11:43:59.511Z,8.70
2018-12-19T11:46:27.591Z,8.70
2018-12-19T11:48:55.624Z,8.60
2018-12-19T11:51:23.941Z,8.40
2018-12-19T11:53:52.023Z,8.30
2018-12-19T11:56:20.250Z,8.30
2018-12-19T11:58:48.311Z,8.40
2018-12-19T12:01:16.426Z,8.40
2018-12-19T12:03:44.462Z,8.50
2018-12-19T12:06:12.535Z,8.40
2018-12-19T12:08:40.600Z,8.30
2018-12-19T12:11:08.898Z,8.20
2018-12-19T12:13:37.079Z,8.20
2018-12-19T12:16:05.359Z,8.10
2018-12-19T12:18:33.408Z,8.00
2018-12-19T12:21:01.481Z,8.00
2018-12-19T12:23:29.574Z,8.10
2018-12-19T12:25:57.743Z,8.10
2018-12-19T12:28:25.790Z,8.20
2018-12-19T12:30:53.888Z,8.20
2018-12-19T12:33:22.958Z,8.20
2018-12-19T12:35:51.383Z,8.20
2018-12-19T12:38:19.459Z,8.10
2018-12-19T12:40:47.527Z,8.20
2018-12-19T12:43:15.554Z,8.20
2018-12-19T12:45:43.639Z,8.30
2018-12-19T12:48:11.720Z,8.40
2018-12-19T12:50:39.790Z,8.40
2018-12-19T12:53:07.931Z,8.50
2018-12-19T12:55:35.995Z,8.60
2018-12-19T12:58:04.074Z,8.60
2018-12-19T13:00:32.132Z,8.60
2018-12-19T13:03:00.583Z,8.50
2018-12-19T13:05:28.650Z,8.50
2018-12-19T13:07:56.744Z,8.50
2018-12-19T13:10:24.778Z,8.50
2018-12-19T13:12:52.922Z,8.40
2018-12-19T13:15:22.850Z,8.40
2018-12-19T13:17:51.590Z,8.50
2018-12-19T13:20:19.661Z,8.40
2018-12-19T13:22:47.791Z,8.40
2018-12-19T13:25:15.850Z,8.30
2018-12-19T13:27:43.931Z,8.40
2018-12-19T13:30:11.983Z,8.40
2018-12-19T13:32:40.031Z,8.40
2018-12-19T13:35:08.203Z,8.40
2018-12-19T13:37:36.321Z,8.40
2018-12-19T13:40:05.511Z,8.50
2018-12-19T13:42:33.595Z,8.60
2018-12-19T13:45:01.671Z,8.70
2018-12-19T13:47:29.707Z,8.70
2018-12-19T13:49:57.763Z,8.80
2018-12-19T13:52:25.982Z,8.80
2018-12-19T13:54:54.038Z,8.80
2018-12-19T13:57:22.098Z,9.10
2018-12-19T13:59:50.160Z,9.30
2018-12-19T14:02:18.219Z,9.30
2018-12-19T14:04:46.789Z,9.40
2018-12-19T14:07:15.066Z,9.40
2018-12-19T14:09:43.119Z,9.20
2018-12-19T14:12:12.386Z,9.10
2018-12-19T14:14:40.879Z,9.00
2018-12-19T14:17:08.954Z,9.00
2018-12-19T14:19:37.187Z,9.00
2018-12-19T14:22:05.300Z,8.90
2018-12-19T14:24:33.342Z,8.90
2018-12-19T14:27:01.382Z,8.80
2018-12-19T14:29:29.476Z,8.80
2018-12-19T14:31:57.522Z,8.80
2018-12-19T14:34:25.603Z,8.80
2018-12-19T14:36:53.686Z,8.70
2018-12-19T14:39:21.860Z,8.60
2018-12-19T14:41:50.048Z,8.50
2018-12-19T14:44:18.206Z,8.40
2018-12-19T14:46:46.367Z,8.30
2018-12-19T14:49:14.479Z,8.20
2018-12-19T14:51:42.601Z,8.20
2018-12-19T14:54:10.710Z,8.20
2018-12-19T14:56:38.871Z,8.10
2018-12-19T14:59:06.945Z,8.00
2018-12-19T15:01:35.005Z,8.00
2018-12-19T15:04:03.136Z,7.90
2018-12-19T15:06:31.232Z,7.90
2018-12-19T15:08:59.256Z,7.80
2018-12-19T15:11:27.311Z,7.80
2018-12-19T15:13:55.407Z,7.70
2018-12-19T15:16:23.480Z,7.70
2018-12-19T15:18:51.631Z,7.70
2018-12-19T15:21:20.335Z,7.60
2018-12-19T15:23:48.406Z,7.60
2018-12-19T15:26:17.015Z,7.50
2018-12-19T15:28:45.122Z,7.50
2018-12-19T15:31:13.214Z,7.40
2018-12-19T15:33:41.295Z,7.50
2018-12-19T15:36:09.479Z,7.50
2018-12-19T15:38:37.555Z,7.40
2018-12-19T15:41:05.624Z,7.30
2018-12-19T15:43:33.711Z,7.30
2018-12-19T15:46:01.750Z,7.30
2018-12-19T15:48:29.790Z,7.30
2018-12-19T15:50:57.887Z,7.20
2018-12-19T15:53:25.967Z,7.20
2018-12-19T15:55:54.259Z,7.10
2018-12-19T15:58:22.334Z,7.00
2018-12-19T16:00:50.422Z,6.90
2018-12-19T16:03:18.575Z,6.80
2018-12-19T16:05:46.655Z,6.80
2018-12-19T16:08:14.715Z,6.80
2018-12-19T16:10:42.787Z,6.70
2018-12-19T16:13:11.246Z,6.70
2018-12-19T16:15:39.326Z,6.60
2018-12-19T16:18:07.411Z,6.50
2018-12-19T16:20:35.450Z,6.50
2018-12-19T16:23:03.574Z,6.50
2018-12-19T16:25:31.655Z,6.30
2018-12-19T16:27:59.690Z,6.20
2018-12-19T16:30:27.870Z,6.10
2018-12-19T16:32:55.938Z,6.20
2018-12-19T16:35:24.026Z,6.20
2018-12-19T16:37:52.165Z,6.20
2018-12-19T16:40:20.259Z,6.20
2018-12-19T16:42:48.310Z,6.20
2018-12-19T16:45:16.727Z,6.10
2018-12-19T16:47:44.987Z,6.10
2018-12-19T16:50:13.035Z,6.20
2018-12-19T16:52:41.110Z,6.20
2018-12-19T16:55:09.481Z,6.20
2018-12-19T16:57:37.534Z,6.20
2018-12-19T17:00:08.456Z,6.20
2018-12-19T17:02:36.574Z,6.10
2018-12-19T17:05:06.527Z,6.10
2018-12-19T17:07:34.596Z,6.10
2018-12-19T17:10:02.742Z,6.10
2018-12-19T17:12:30.798Z,6.10
2018-12-19T17:14:58.879Z,6.10
2018-12-19T17:17:27.134Z,6.00
2018-12-19T17:19:55.334Z,5.90
2018-12-19T17:22:23.415Z,6.00
2018-12-19T17:24:51.478Z,6.00
2018-12-19T17:27:19.567Z,6.00
2018-12-19T17:29:47.607Z,5.80
2018-12-19T17:32:15.758Z,5.70
2018-12-19T17:34:43.851Z,5.80
2018-12-19T17:37:12.318Z,5.90
2018-12-19T17:39:40.407Z,5.80
2018-12-19T17:42:08.478Z,5.90
2018-12-19T17:44:36.571Z,6.00
2018-12-19T17:47:04.641Z,6.20
2018-12-19T17:49:32.694Z,6.40
2018-12-19T17:52:00.752Z,6.50
2018-12-19T17:54:28.911Z,6.60
2018-12-19T17:56:56.983Z,6.60
2018-12-19T17:59:25.046Z,6.60
2018-12-19T18:01:53.243Z,6.70
2018-12-19T18:04:21.299Z,6.70
2018-12-19T18:06:49.351Z,6.70
2018-12-19T18:09:17.415Z,6.80
2018-12-19T18:11:45.559Z,6.80
2018-12-19T18:14:13.939Z,6.90
2018-12-19T18:16:41.987Z,6.90
2018-12-19T18:19:10.155Z,6.90
2018-12-19T18:21:38.359Z,6.90
2018-12-19T18:24:06.424Z,6.90
2018-12-19T18:26:34.503Z,6.90
2018-12-19T18:29:02.583Z,6.90
2018-12-19T18:31:30.618Z,6.90
2018-12-19T18:33:58.696Z,6.90
2018-12-19T18:36:26.990Z,6.90
2018-12-19T18:38:55.064Z,6.90
2018-12-19T18:41:23.098Z,6.90
2018-12-19T18:43:51.174Z,6.90
2018-12-19T18:46:19.225Z,6.90
2018-12-19T18:48:47.310Z,6.80
2018-12-19T18:51:15.399Z,6.80
2018-12-19T18:53:43.475Z,6.80
2018-12-19T18:56:11.520Z,6.90
2018-12-19T18:58:40.022Z,6.90
2018-12-19T19:01:08.347Z,6.90
2018-12-19T19:03:36.474Z,6.80
2018-12-19T19:06:04.683Z,6.90
2018-12-19T19:08:32.791Z,6.90
2018-12-19T19:11:00.891Z,6.90
2018-12-19T19:13:28.966Z,7.00
2018-12-19T19:15:57.165Z,7.00
2018-12-19T19:18:25.595Z,6.90
2018-12-19T19:20:53.878Z,7.00
2018-12-19T19:23:21.910Z,7.00
2018-12-19T19:25:49.950Z,7.00
2018-12-19T19:28:18.018Z,7.00
2018-12-19T19:30:46.152Z,7.00
2018-12-19T19:33:14.251Z,7.00
2018-12-19T19:35:42.347Z,7.00
2018-12-19T19:38:10.394Z,7.00
2018-12-19T19:40:38.462Z,7.00
2018-12-19T19:43:06.523Z,7.00
2018-12-19T19:45:34.646Z,7.00
2018-12-19T19:48:02.886Z,7.00
2018-12-19T19:50:30.943Z,7.00
2018-12-19T19:52:59.051Z,6.90
2018-12-19T19:55:27.098Z,6.90
2018-12-19T19:57:55.276Z,6.90
2018-12-19T20:00:25.290Z,6.90
2018-12-19T20:02:53.347Z,6.90
2018-12-19T20:05:21.527Z,6.90
2018-12-19T20:07:49.599Z,6.90
2018-12-19T20:10:17.646Z,6.90
2018-12-19T20:12:45.746Z,6.90
2018-12-19T20:15:13.850Z,6.90
2018-12-19T20:17:41.993Z,6.90
2018-12-19T20:20:10.047Z,6.90
2018-12-19T20:22:38.100Z,6.90
2018-12-19T20:25:06.335Z,6.80
2018-12-19T20:27:34.402Z,6.80
2018-12-19T20:30:02.735Z,6.70
2018-12-19T20:32:30.770Z,6.70
2018-12-19T20:34:58.824Z,6.60
2018-12-19T20:37:26.979Z,6.50
2018-12-19T20:39:55.051Z,6.50
2018-12-19T20:42:23.143Z,6.40
2018-12-19T20:44:51.206Z,6.40
2018-12-19T20:47:19.254Z,6.40
2018-12-19T20:49:47.463Z,6.40
2018-12-19T20:52:15.526Z,6.40
2018-12-19T20:54:43.807Z,6.40
2018-12-19T20:57:11.879Z,6.40
2018-12-19T20:59:39.965Z,6.40
2018-12-19T21:02:08.119Z,6.40
2018-12-19T21:04:36.282Z,6.50
2018-12-19T21:07:04.575Z,6.50
2018-12-19T21:09:32.654Z,6.40
2018-12-19T21:12:01.129Z,6.40
2018-12-19T21:14:29.203Z,6.40
2018-12-19T21:16:59.210Z,6.40
2018-12-19T21:19:27.307Z,6.40
2018-12-19T21:21:55.349Z,6.40
2018-12-19T21:24:24.615Z,6.40
2018-12-19T21:26:52.727Z,6.40
2018-12-19T21:29:20.802Z,6.40
2018-12-19T21:31:49.220Z,6.40
2018-12-19T21:34:17.263Z,6.50
2018-12-19T21:36:45.320Z,6.50
2018-12-19T21:39:13.425Z,6.50
2018-12-19T21:41:41.671Z,6.50
2018-12-19T21:44:09.745Z,6.50
2018-12-19T21:46:37.884Z,6.60
2018-12-19T21:49:06.078Z,6.60
2018-12-19T21:51:34.250Z,6.60
2018-12-19T21:54:02.385Z,6.60
2018-12-19T21:56:30.551Z,6.60
2018-12-19T21:58:58.606Z,6.60
2018-12-19T22:01:26.731Z,6.60
2018-12-19T22:03:54.846Z,6.60
2018-12-19T22:06:23.060Z,6.60
2018-12-19T22:08:52.186Z,6.60
2018-12-19T22:11:20.283Z,6.60
2018-12-19T22:13:48.333Z,6.60
2018-12-19T22:16:18.495Z,6.60
2018-12-19T22:18:47.286Z,6.60
2018-12-19T22:21:15.726Z,6.60
2018-12-19T22:23:43.794Z,6.60
2018-12-19T22:26:11.920Z,6.70
2018-12-19T22:28:40.024Z,6.60
2018-12-19T22:31:08.306Z,6.60
2018-12-19T22:33:36.580Z,6.70
2018-12-19T22:36:04.716Z,6.60
2018-12-19T22:38:32.850Z,6.70
2018-12-19T22:41:01.044Z,6.70
2018-12-19T22:43:29.186Z,6.80
2018-12-19T22:45:57.801Z,6.80
2018-12-19T22:48:25.936Z,6.80
2018-12-19T22:50:54.066Z,6.80
2018-12-19T22:53:22.150Z,6.80
2018-12-19T22:55:50.287Z,6.80
2018-12-19T22:58:18.529Z,6.80
2018-12-19T23:00:51.925Z,6.90
2018-12-19T23:03:21.912Z,6.90
2018-12-19T23:05:50.009Z,6.90
2018-12-19T23:08:18.906Z,6.90
2018-12-19T23:10:46.982Z,6.90
2018-12-19T23:13:15.432Z,6.80
2018-12-19T23:15:43.504Z,6.80
2018-12-19T23:18:13.720Z,6.80
2018-12-19T23:20:41.803Z,6.80
2018-12-19T23:23:09.893Z,6.80
2018-12-19T23:25:38.841Z,6.80
2018-12-19T23:28:06.942Z,6.70
2018-12-19T23:30:35.146Z,6.70
2018-12-19T23:33:03.420Z,6.70
2018-12-19T23:35:31.898Z,6.80
2018-12-19T23:38:00.054Z,6.70
2018-12-19T23:40:28.142Z,6.70
2018-12-19T23:42:56.183Z,6.80
2018-12-19T23:45:24.409Z,6.80
2018-12-19T23:47:52.582Z,6.80
2018-12-19T23:50:20.882Z,6.90
2018-12-19T23:52:49.114Z,6.90
2018-12-19T23:55:17.574Z,7.00
2018-12-19T23:57:45.647Z,6.90
